createdAt,value
2023-09-27T00:00:48.826Z,15.90
2023-09-27T00:06:10.648Z,15.90
2023-09-27T00:11:32.564Z,15.80
2023-09-27T00:16:54.613Z,15.80
2023-09-27T00:22:16.541Z,15.80
2023-09-27T00:27:38.393Z,15.80
2023-09-27T00:33:00.567Z,15.80
2023-09-27T00:38:22.622Z,15.80
2023-09-27T00:43:44.531Z,15.80
2023-09-27T00:49:06.415Z,15.80
2023-09-27T00:54:28.311Z,15.80
2023-09-27T00:59:50.149Z,15.80
2023-09-27T01:05:12.128Z,15.80
2023-09-27T01:10:34.081Z,15.70
2023-09-27T01:15:55.968Z,15.80
2023-09-27T01:21:17.817Z,15.80
2023-09-27T01:26:39.673Z,15.80
2023-09-27T01:32:01.556Z,15.70
2023-09-27T01:37:23.871Z,15.80
2023-09-27T01:42:45.695Z,15.80
2023-09-27T01:48:07.721Z,15.70
2023-09-27T01:53:29.632Z,15.70
2023-09-27T01:58:51.735Z,15.70
2023-09-27T02:04:13.838Z,15.70
2023-09-27T02:09:35.692Z,15.60
2023-09-27T02:14:57.517Z,15.40
2023-09-27T02:20:19.631Z,15.30
2023-09-27T02:25:41.523Z,15.20
2023-09-27T02:31:03.415Z,15.00
2023-09-27T02:36:25.329Z,14.90
2023-09-27T02:41:47.150Z,15.00
2023-09-27T02:47:09.026Z,14.90
2023-09-27T02:52:30.895Z,14.90
2023-09-27T02:57:55.147Z,14.70
2023-09-27T03:03:18.368Z,14.70
2023-09-27T03:08:40.403Z,14.70
2023-09-27T03:14:03.315Z,14.70
2023-09-27T03:19:25.269Z,14.70
2023-09-27T03:24:47.125Z,14.70
2023-09-27T03:30:09.020Z,14.80
2023-09-27T03:35:30.970Z,14.80
2023-09-27T03:40:52.865Z,14.80
2023-09-27T03:46:14.682Z,14.80
2023-09-27T03:51:36.532Z,14.80
2023-09-27T03:56:58.360Z,14.70
2023-09-27T04:02:20.230Z,14.60
2023-09-27T04:07:42.067Z,14.60
2023-09-27T04:13:03.901Z,14.50
2023-09-27T04:18:25.740Z,14.50
2023-09-27T04:23:47.727Z,14.50
2023-09-27T04:29:09.589Z,14.50
2023-09-27T04:34:31.440Z,14.40
2023-09-27T04:39:53.329Z,14.30
2023-09-27T04:45:15.190Z,14.30
2023-09-27T04:50:37.674Z,14.30
2023-09-27T04:55:59.612Z,14.30
2023-09-27T05:01:21.540Z,14.30
2023-09-27T05:06:43.397Z,14.20
2023-09-27T05:12:05.244Z,14.30
2023-09-27T05:17:27.259Z,14.30
2023-09-27T05:22:49.178Z,14.90
2023-09-27T05:28:11.033Z,15.50
2023-09-27T05:33:32.909Z,15.80
2023-09-27T05:38:54.877Z,16.20
2023-09-27T05:44:16.921Z,16.20
2023-09-27T05:49:38.790Z,16.00
2023-09-27T05:55:00.632Z,15.90
2023-09-27T06:00:22.564Z,16.20
2023-09-27T06:05:45.228Z,17.30
2023-09-27T06:11:07.213Z,18.00
2023-09-27T06:16:29.167Z,18.40
2023-09-27T06:21:51.012Z,18.80
2023-09-27T06:27:12.930Z,19.40
2023-09-27T06:32:34.913Z,19.70
2023-09-27T06:37:57.368Z,20.10
2023-09-27T06:43:19.188Z,20.40
2023-09-27T06:48:41.131Z,20.60
2023-09-27T06:54:03.176Z,20.60
2023-09-27T06:59:25.119Z,20.80
2023-09-27T07:04:47.007Z,20.90
2023-09-27T07:10:08.863Z,20.90
2023-09-27T07:15:30.690Z,21.20
2023-09-27T07:20:52.541Z,21.60
2023-09-27T07:26:14.547Z,21.70
2023-09-27T07:31:36.402Z,21.80
2023-09-27T07:36:58.226Z,21.90
2023-09-27T07:42:20.063Z,22.00
2023-09-27T07:47:42.067Z,22.20
2023-09-27T07:53:04.055Z,22.60
2023-09-27T07:58:25.893Z,23.10
2023-09-27T08:03:47.809Z,23.40
2023-09-27T08:09:17.534Z,23.80
2023-09-27T08:14:45.979Z,24.10
2023-09-27T08:20:07.805Z,24.50
2023-09-27T08:25:29.689Z,24.80
2023-09-27T08:30:51.562Z,24.90
2023-09-27T08:36:13.443Z,25.10
2023-09-27T08:41:35.334Z,25.20
2023-09-27T08:46:57.202Z,25.40
2023-09-27T08:52:19.051Z,25.30
2023-09-27T08:57:40.900Z,25.60
2023-09-27T09:03:03.357Z,25.60
2023-09-27T09:08:41.036Z,25.90
2023-09-27T09:14:05.896Z,26.10
2023-09-27T09:19:43.457Z,26.50
2023-09-27T09:25:05.887Z,26.70
2023-09-27T09:30:27.730Z,26.80
2023-09-27T09:35:49.671Z,27.00
2023-09-27T09:41:11.613Z,27.10
2023-09-27T09:46:33.581Z,27.40
2023-09-27T09:51:55.436Z,27.40
2023-09-27T09:57:28.003Z,27.60
2023-09-27T10:02:57.329Z,27.90
2023-09-27T10:08:19.300Z,28.00
2023-09-27T10:13:41.155Z,27.90
2023-09-27T10:19:03.010Z,28.10
2023-09-27T10:24:24.924Z,28.00
2023-09-27T10:29:47.013Z,28.20
2023-09-27T10:35:08.954Z,28.20
2023-09-27T10:40:30.814Z,28.40
2023-09-27T10:45:52.723Z,28.30
2023-09-27T10:51:14.597Z,28.50
2023-09-27T10:56:36.457Z,28.40
2023-09-27T11:01:58.392Z,28.40
2023-09-27T11:07:20.300Z,28.30
2023-09-27T11:12:42.205Z,28.40
2023-09-27T11:18:04.162Z,28.40
2023-09-27T11:23:26.148Z,28.40
2023-09-27T11:28:47.994Z,28.30
2023-09-27T11:34:10.033Z,28.30
2023-09-27T11:39:31.875Z,28.30
2023-09-27T11:44:53.793Z,28.40
2023-09-27T11:50:15.736Z,28.40
2023-09-27T11:55:37.608Z,28.50
2023-09-27T12:00:59.646Z,28.40
2023-09-27T12:06:21.861Z,28.40
2023-09-27T12:11:44.027Z,28.30
2023-09-27T12:17:05.907Z,28.10
2023-09-27T12:22:27.893Z,28.20
2023-09-27T12:27:49.846Z,28.10
2023-09-27T12:33:12.092Z,28.20
2023-09-27T12:38:34.105Z,28.30
2023-09-27T12:43:56.096Z,28.30
2023-09-27T12:49:18.021Z,28.20
2023-09-27T12:54:39.908Z,28.10
2023-09-27T13:00:03.788Z,28.00
2023-09-27T13:05:26.629Z,27.90
2023-09-27T13:10:48.753Z,27.80
2023-09-27T13:16:11.129Z,27.70
2023-09-27T13:21:33.057Z,27.60
2023-09-27T13:26:55.026Z,27.60
2023-09-27T13:32:17.110Z,27.60
2023-09-27T13:37:39.006Z,27.60
2023-09-27T13:43:01.061Z,27.60
2023-09-27T13:48:22.964Z,27.60
2023-09-27T13:53:44.965Z,27.50
2023-09-27T13:59:06.972Z,27.50
2023-09-27T14:04:28.989Z,27.50
2023-09-27T14:09:50.981Z,27.50
2023-09-27T14:15:13.900Z,27.40
2023-09-27T14:20:37.615Z,27.30
2023-09-27T14:25:59.517Z,27.20
2023-09-27T14:31:21.378Z,27.20
2023-09-27T14:36:43.288Z,27.20
2023-09-27T14:42:05.149Z,27.10
2023-09-27T14:47:27.200Z,27.00
2023-09-27T14:52:49.194Z,27.00
2023-09-27T14:58:11.090Z,26.90
2023-09-27T15:03:33.123Z,26.80
2023-09-27T15:08:55.035Z,26.70
2023-09-27T15:14:16.857Z,26.70
2023-09-27T15:19:38.735Z,26.60
2023-09-27T15:25:00.626Z,26.50
2023-09-27T15:30:22.550Z,26.40
2023-09-27T15:35:44.368Z,26.30
2023-09-27T15:41:06.188Z,26.20
2023-09-27T15:46:28.090Z,26.00
2023-09-27T15:51:49.954Z,25.90
2023-09-27T15:57:11.785Z,25.70
2023-09-27T16:02:33.676Z,25.60
2023-09-27T16:07:55.681Z,25.50
2023-09-27T16:13:17.620Z,25.30
2023-09-27T16:24:18.823Z,24.90
2023-09-27T16:29:40.849Z,24.70
2023-09-27T16:35:03.097Z,24.40
2023-09-27T16:40:24.990Z,24.20
2023-09-27T16:45:46.891Z,23.90
2023-09-27T16:51:08.782Z,23.70
2023-09-27T16:56:30.629Z,23.50
2023-09-27T17:01:52.602Z,23.30
2023-09-27T17:07:14.648Z,23.00
2023-09-27T17:12:36.527Z,22.80
2023-09-27T17:17:58.472Z,22.60
2023-09-27T17:23:20.357Z,22.50
2023-09-27T17:28:42.250Z,22.30
2023-09-27T17:34:04.236Z,22.10
2023-09-27T17:39:26.185Z,22.00
2023-09-27T17:44:49.036Z,21.80
2023-09-27T17:50:11.051Z,21.60
2023-09-27T17:55:32.952Z,21.50
2023-09-27T18:00:54.862Z,21.30
2023-09-27T18:06:16.763Z,21.20
2023-09-27T18:11:38.626Z,21.10
2023-09-27T18:17:00.640Z,20.90
2023-09-27T18:22:22.519Z,20.70
2023-09-27T18:27:44.356Z,20.60
2023-09-27T18:33:06.250Z,20.50
2023-09-27T18:38:28.109Z,20.30
2023-09-27T18:43:50.028Z,20.20
2023-09-27T18:49:11.906Z,20.10
2023-09-27T18:54:33.776Z,20.00
2023-09-27T18:59:55.618Z,19.80
2023-09-27T19:05:17.481Z,19.80
2023-09-27T19:10:39.477Z,19.60
2023-09-27T19:16:01.504Z,19.50
2023-09-27T19:21:23.383Z,19.30
2023-09-27T19:26:45.230Z,19.30
2023-09-27T19:32:07.101Z,19.20
2023-09-27T19:37:29.008Z,19.10
2023-09-27T19:42:50.898Z,19.00
2023-09-27T19:48:12.778Z,19.00
2023-09-27T19:53:34.648Z,18.90
2023-09-27T19:58:56.593Z,18.70
2023-09-27T20:04:18.498Z,18.50
2023-09-27T20:09:40.337Z,18.40
2023-09-27T20:15:02.175Z,18.30
2023-09-27T20:20:23.998Z,18.30
2023-09-27T20:25:45.869Z,18.20
2023-09-27T20:31:07.765Z,18.20
2023-09-27T20:36:29.647Z,18.20
2023-09-27T20:41:51.644Z,18.10
2023-09-27T20:47:13.514Z,18.00
2023-09-27T20:52:35.441Z,18.00
2023-09-27T20:57:57.379Z,18.10
2023-09-27T21:03:19.370Z,18.20
2023-09-27T21:08:41.289Z,18.20
2023-09-27T21:14:03.157Z,18.20
2023-09-27T21:19:25.137Z,18.20
2023-09-27T21:24:46.985Z,18.10
2023-09-27T21:30:08.824Z,18.00
2023-09-27T21:35:30.681Z,17.80
2023-09-27T21:40:52.639Z,17.70
2023-09-27T21:46:14.604Z,17.60
2023-09-27T21:51:36.445Z,17.60
2023-09-27T21:56:58.323Z,17.50
2023-09-27T22:02:20.163Z,17.50
2023-09-27T22:07:42.053Z,17.40
2023-09-27T22:13:03.924Z,17.30
2023-09-27T22:18:25.786Z,17.20
2023-09-27T22:23:47.649Z,17.10
2023-09-27T22:29:09.572Z,16.90
2023-09-27T22:34:31.462Z,16.90
2023-09-27T22:40:04.581Z,16.70
2023-09-27T22:45:34.744Z,16.60
2023-09-27T22:50:56.610Z,16.50
2023-09-27T22:56:18.475Z,16.40
2023-09-27T23:01:40.368Z,16.30
2023-09-27T23:07:02.373Z,16.20
2023-09-27T23:12:24.518Z,16.00
2023-09-27T23:17:46.370Z,15.90
2023-09-27T23:23:08.843Z,15.80
2023-09-27T23:28:30.887Z,15.80
2023-09-27T23:33:53.054Z,15.60
2023-09-27T23:39:15.086Z,15.60
2023-09-27T23:44:36.918Z,15.50
2023-09-27T23:49:58.791Z,15.40
2023-09-27T23:55:20.660Z,15.30
